Time;durP1;ratioP1;P1;durP2;ratioP2;P2;SDS_P1;SDS_P2;PMS_P1;PMS_P2;Temp;Humidity;BMP_temperature;BMP_pressure;BME280_temperature;BME280_humidity;BME280_pressure;Samples;Min_cycle;Max_cycle;Signal;HPM_P1;HPM_P2
2023/04/14 00:01:44;;;;;;;13.52;2.60;;;;;;;5.06;88.20;100603.44;5068138;28;20036;-76
2023/04/14 00:04:10;;;;;;;5.65;1.77;;;;;;;5.03;88.70;100599.38;5056049;28;20540;-78
2023/04/14 00:06:36;;;;;;;8.02;1.90;;;;;;;5.00;88.50;100597.06;5071488;28;20066;-79
2023/04/14 00:09:01;;;;;;;8.82;2.03;;;;;;;5.00;89.43;100603.97;5073806;28;20032;-77
2023/04/14 00:11:27;;;;;;;8.43;2.33;;;;;;;4.95;88.94;100600.94;5066032;28;20039;-77
2023/04/14 00:13:54;;;;;;;12.68;2.33;;;;;;;4.89;89.15;100609.97;5049732;28;20020;-77
2023/04/14 00:16:20;;;;;;;9.30;1.75;;;;;;;4.86;89.45;100603.31;5073049;28;20042;-79
2023/04/14 00:18:45;;;;;;;8.63;1.98;;;;;;;4.86;89.73;100608.47;5054147;28;20047;-78
2023/04/14 00:21:12;;;;;;;8.82;2.30;;;;;;;4.84;89.70;100610.34;5055408;28;20493;-78
2023/04/14 00:23:37;;;;;;;5.97;1.95;;;;;;;4.83;89.59;100613.84;5050530;28;20039;-77
2023/04/14 00:26:03;;;;;;;6.03;1.75;;;;;;;4.81;89.73;100609.75;5051089;28;20044;-77
2023/04/14 00:28:29;;;;;;;9.25;2.00;;;;;;;4.81;89.49;100617.47;5064465;28;20039;-76
2023/04/14 00:30:54;;;;;;;5.57;2.20;;;;;;;4.78;90.13;100617.72;5064807;28;20407;-77
2023/04/14 00:33:19;;;;;;;3.88;1.88;;;;;;;4.75;90.11;100617.97;5055949;28;20024;-79
2023/04/14 00:35:45;;;;;;;5.93;2.33;;;;;;;4.71;90.21;100611.41;5066500;28;20066;-78
2023/04/14 00:38:10;;;;;;;7.75;2.28;;;;;;;4.68;90.39;100620.19;5053384;28;20312;-77
2023/04/14 00:40:36;;;;;;;8.25;2.33;;;;;;;4.69;90.55;100616.72;5069552;28;20020;-77
2023/04/14 00:43:01;;;;;;;8.60;2.20;;;;;;;4.67;90.23;100619.41;5053179;28;20028;-78
2023/04/14 00:45:27;;;;;;;9.18;2.05;;;;;;;4.64;90.22;100618.81;5081352;28;20471;-78
2023/04/14 00:47:53;;;;;;;7.05;2.15;;;;;;;4.62;90.36;100618.13;5068784;28;20059;-78
2023/04/14 00:50:20;;;;;;;8.88;2.22;;;;;;;4.59;90.16;100621.72;5052250;28;20499;-78
2023/04/14 00:52:48;;;;;;;10.15;2.85;;;;;;;4.56;90.25;100623.72;5066864;28;20029;-79
2023/04/14 00:55:15;;;;;;;7.57;2.30;;;;;;;4.53;90.61;100622.22;5056090;28;20035;-78
2023/04/14 00:57:40;;;;;;;10.55;2.63;;;;;;;4.49;90.73;100620.84;5059411;28;20047;-78
2023/04/14 01:00:07;;;;;;;9.07;2.90;;;;;;;4.49;90.85;100625.97;5050756;28;20192;-78
2023/04/14 01:02:32;;;;;;;12.85;3.10;;;;;;;4.49;90.54;100637.06;5069629;28;20039;-78
2023/04/14 01:04:58;;;;;;;9.85;2.10;;;;;;;4.44;90.58;100634.03;5052837;28;20028;-77
2023/04/14 01:07:26;;;;;;;10.32;2.60;;;;;;;4.41;90.90;100633.47;5071721;28;20036;-78
2023/04/14 01:09:53;;;;;;;11.82;2.33;;;;;;;4.37;90.72;100632.91;5065402;28;20032;-77
2023/04/14 01:12:40;;;;;;;12.45;2.90;;;;;;;4.31;90.77;100635.91;5067373;28;20410;-77
2023/04/14 01:15:31;;;;;;;9.57;2.30;;;;;;;4.16;91.10;100642.25;5087411;28;20032;-77
2023/04/14 01:18:22;;;;;;;11.02;1.90;;;;;;;3.99;91.94;100656.38;5065433;28;20040;-78
2023/04/14 01:20:55;;;;;;;11.77;2.53;;;;;;;3.83;91.98;100654.97;5052257;28;20043;-78
2023/04/14 01:23:26;;;;;;;7.43;3.10;;;;;;;3.75;92.37;100656.47;5075412;28;20454;-78
2023/04/14 01:26:08;;;;;;;6.13;2.40;;;;;;;3.73;93.11;100653.19;5052848;28;20435;-77
2023/04/14 01:28:55;;;;;;;8.07;2.40;;;;;;;3.70;93.64;100652.50;5063870;28;20030;-78
2023/04/14 01:31:36;;;;;;;6.30;2.22;;;;;;;3.70;93.52;100657.63;5055897;28;20037;-78
2023/04/14 01:34:13;;;;;;;7.47;1.95;;;;;;;3.73;93.82;100658.31;5069540;28;20032;-77
2023/04/14 01:36:46;;;;;;;4.82;2.15;;;;;;;3.75;94.00;100652.16;5046329;28;20085;-78
2023/04/14 01:39:19;;;;;;;6.05;2.13;;;;;;;3.71;93.94;100655.88;5084294;28;20379;-78
2023/04/14 01:41:55;;;;;;;9.93;2.70;;;;;;;3.64;94.21;100650.41;5064596;28;20028;-78
2023/04/14 01:44:22;;;;;;;4.43;2.05;;;;;;;3.57;94.22;100656.91;5068660;28;20123;-77
2023/04/14 01:46:54;;;;;;;8.32;2.47;;;;;;;3.49;94.20;100654.91;5052922;28;20036;-77
2023/04/14 01:49:22;;;;;;;8.32;2.28;;;;;;;3.45;94.67;100660.41;5060090;28;20165;-78
2023/04/14 01:51:48;;;;;;;8.80;2.47;;;;;;;3.42;94.70;100658.03;5054116;28;20028;-76
2023/04/14 01:54:17;;;;;;;8.80;2.45;;;;;;;3.39;94.75;100660.81;5068762;28;20032;-77
2023/04/14 01:56:44;;;;;;;15.85;3.28;;;;;;;3.36;95.17;100663.63;5081739;28;20508;-78
2023/04/14 01:59:11;;;;;;;11.82;3.67;;;;;;;3.35;95.09;100664.56;5067995;28;20043;-77
2023/04/14 02:01:39;;;;;;;11.43;3.08;;;;;;;3.34;95.35;100675.75;5060013;28;20032;-78
2023/04/14 02:04:05;;;;;;;9.00;3.35;;;;;;;3.31;95.29;100663.94;5063973;28;20028;-78
2023/04/14 02:06:33;;;;;;;9.38;3.20;;;;;;;3.29;95.74;100660.69;5056356;28;20037;-77
2023/04/14 02:09:01;;;;;;;12.73;4.20;;;;;;;3.26;95.41;100663.50;5052623;28;20028;-78
2023/04/14 02:11:28;;;;;;;10.45;3.30;;;;;;;3.21;95.70;100663.00;5056905;28;20288;-78
2023/04/14 02:13:55;;;;;;;8.13;3.60;;;;;;;3.14;95.53;100666.94;5056294;28;20110;-77
2023/04/14 02:16:23;;;;;;;7.15;3.50;;;;;;;3.09;95.99;100670.66;5054541;28;20038;-79
2023/04/14 02:18:49;;;;;;;12.80;3.50;;;;;;;3.06;95.83;100667.50;5093654;28;20032;-77
2023/04/14 02:21:16;;;;;;;9.90;3.90;;;;;;;3.03;95.81;100670.25;5071271;28;20494;-77
2023/04/14 02:23:42;;;;;;;13.45;4.28;;;;;;;2.99;96.21;100666.28;5052993;28;20035;-78
2023/04/14 02:26:14;;;;;;;10.68;3.72;;;;;;;2.98;96.35;100672.34;5065356;28;20043;-78
2023/04/14 02:28:56;;;;;;;;;;;;;;;2.95;96.43;100675.13;5050740;28;20025;-78
2023/04/14 02:31:24;;;;;;;11.85;4.47;;;;;;;2.86;96.52;100672.31;5050764;28;20418;-77
2023/04/14 02:33:54;;;;;;;9.98;4.60;;;;;;;2.81;96.66;100678.69;5082180;28;20440;-79
2023/04/14 02:36:24;;;;;;;14.80;4.13;;;;;;;2.74;97.03;100675.72;5063156;28;20122;-78
2023/04/14 02:39:22;;;;;;;8.10;3.70;;;;;;;2.70;97.16;100676.88;5068103;28;20033;-78
2023/04/14 02:41:55;;;;;;;11.63;4.30;;;;;;;2.63;97.31;100679.03;5083627;28;20086;-78
2023/04/14 02:44:31;;;;;;;11.38;3.03;;;;;;;2.59;97.69;100677.59;5049616;28;20020;-78
2023/04/14 02:47:09;;;;;;;12.80;4.13;;;;;;;2.53;98.17;100683.97;5050126;28;20029;-78
2023/04/14 02:49:45;;;;;;;10.82;3.72;;;;;;;2.50;98.14;100688.47;5045991;28;20020;-78
2023/04/14 02:52:13;;;;;;;;;;;;;;;2.49;98.49;100689.44;5064598;28;20073;-78
2023/04/14 02:54:42;;;;;;;11.85;3.15;;;;;;;2.45;98.71;100693.94;5083451;28;19938;-78
2023/04/14 02:57:08;;;;;;;9.98;2.92;;;;;;;2.41;98.49;100692.53;5083911;28;20056;-77
2023/04/14 02:59:39;;;;;;;7.75;2.78;;;;;;;2.40;98.84;100692.63;5051700;28;20039;-78
2023/04/14 03:02:09;;;;;;;16.80;3.33;;;;;;;2.40;99.01;100701.09;5068690;28;20532;-76
2023/04/14 03:04:39;;;;;;;7.95;3.10;;;;;;;2.41;99.21;100700.19;5067346;28;20646;-76
2023/04/14 03:07:12;;;;;;;9.10;2.78;;;;;;;2.42;99.66;100701.00;5073240;28;20051;-78
2023/04/14 03:09:39;;;;;;;6.20;2.30;;;;;;;2.41;99.63;100702.75;5067957;28;20025;-78
2023/04/14 03:12:06;;;;;;;8.85;2.42;;;;;;;2.40;99.72;100708.78;5055147;28;20038;-78
2023/04/14 03:14:34;;;;;;;6.50;2.78;;;;;;;2.40;99.77;100698.53;5070819;28;20107;-77
2023/04/14 03:17:03;;;;;;;8.15;2.33;;;;;;;2.39;99.40;100702.00;5052074;28;20036;-77
2023/04/14 03:19:30;;;;;;;9.63;2.83;;;;;;;2.37;99.81;100692.81;5052109;28;20020;-79
2023/04/14 03:21:58;;;;;;;7.75;2.40;;;;;;;2.37;100.00;100683.38;5089617;28;20459;-78
2023/04/14 03:24:29;;;;;;;6.90;2.40;;;;;;;2.41;99.75;100694.25;5052860;28;20115;-78
2023/04/14 03:27:05;;;;;;;9.32;3.35;;;;;;;2.41;99.78;100695.06;5071974;28;20127;-78
2023/04/14 03:29:42;;;;;;;10.77;2.67;;;;;;;2.43;99.74;100697.50;5076676;28;20027;-78
2023/04/14 03:32:10;;;;;;;9.48;2.95;;;;;;;2.44;100.00;100697.41;5051547;28;20490;-78
2023/04/14 03:34:40;;;;;;;8.38;2.83;;;;;;;2.45;99.60;100699.06;5085575;28;20494;-78
2023/04/14 03:37:07;;;;;;;12.48;3.00;;;;;;;2.38;99.29;100705.50;5052608;28;20032;-78
2023/04/14 03:39:37;;;;;;;7.53;3.33;;;;;;;2.31;99.46;100699.19;5067513;28;20572;-79
2023/04/14 03:42:06;;;;;;;5.43;2.47;;;;;;;2.24;99.61;100695.38;5069285;28;20048;-77
2023/04/14 03:44:35;;;;;;;8.32;2.53;;;;;;;2.20;99.92;100701.66;5052788;28;20055;-78
2023/04/14 03:47:02;;;;;;;6.57;3.05;;;;;;;2.18;100.00;100699.19;5068470;28;20525;-77
2023/04/14 03:49:35;;;;;;;8.63;2.33;;;;;;;2.18;100.00;100701.75;5070973;28;20033;-79
2023/04/14 03:52:05;;;;;;;6.88;2.80;;;;;;;2.21;100.00;100703.28;5070941;28;20032;-76
2023/04/14 03:54:32;;;;;;;7.43;3.22;;;;;;;2.23;100.00;100704.00;5070500;28;20485;-78
2023/04/14 03:56:59;;;;;;;10.77;3.05;;;;;;;2.25;100.00;100713.22;5067500;28;20050;-78
2023/04/14 03:59:28;;;;;;;9.10;2.70;;;;;;;2.24;100.00;100697.94;5055099;28;20093;-77
2023/04/14 04:01:55;;;;;;;9.93;3.63;;;;;;;2.23;99.75;100704.81;5082558;28;20059;-77
2023/04/14 04:04:22;;;;;;;10.55;2.80;;;;;;;2.24;99.60;100705.63;5072004;28;20490;-78
2023/04/14 04:06:50;;;;;;;10.93;2.70;;;;;;;2.22;99.60;100712.59;5048612;28;20024;-78
2023/04/14 04:09:18;;;;;;;9.80;2.95;;;;;;;2.20;99.81;100704.19;5049357;28;20062;-77
2023/04/14 04:11:46;;;;;;;10.18;2.67;;;;;;;2.17;100.00;100697.56;5064257;28;20036;-77
2023/04/14 04:14:17;;;;;;;9.13;2.83;;;;;;;2.14;100.00;100698.56;5081285;28;20043;-77
2023/04/14 04:16:48;;;;;;;6.47;2.33;;;;;;;2.14;100.00;100700.31;5063407;28;20025;-77
2023/04/14 04:19:14;;;;;;;6.57;2.08;;;;;;;2.12;100.00;100704.72;5071732;28;20067;-78
2023/04/14 04:21:44;;;;;;;10.00;2.45;;;;;;;2.11;100.00;100697.97;5057105;28;20104;-78
2023/04/14 04:24:12;;;;;;;9.88;2.55;;;;;;;2.07;100.00;100697.38;5068920;28;20028;-77
2023/04/14 04:26:38;;;;;;;8.50;2.22;;;;;;;2.05;100.00;100694.06;5050300;28;20118;-77
2023/04/14 04:29:05;;;;;;;7.60;2.35;;;;;;;2.03;100.00;100690.81;5068073;28;20449;-77
2023/04/14 04:31:32;;;;;;;17.00;2.78;;;;;;;2.03;100.00;100703.59;5050404;28;20089;-78
2023/04/14 04:33:58;;;;;;;12.35;2.50;;;;;;;2.04;100.00;100699.31;5052294;28;20024;-77
2023/04/14 04:36:30;;;;;;;8.15;3.42;;;;;;;2.02;100.00;100696.84;5063321;28;20085;-77
2023/04/14 04:38:56;;;;;;;6.03;2.38;;;;;;;1.97;100.00;100695.53;5064634;28;20110;-77
2023/04/14 04:41:25;;;;;;;8.82;2.00;;;;;;;1.84;100.00;100706.56;5065160;28;20549;-77
2023/04/14 04:43:51;;;;;;;11.43;2.25;;;;;;;1.74;100.00;100706.34;5064881;28;20424;-78
2023/04/14 04:46:33;;;;;;;9.15;2.33;;;;;;;1.64;100.00;100710.44;5047880;28;20062;-77
2023/04/14 04:48:58;;;;;;;5.45;2.47;;;;;;;1.55;100.00;100723.81;5091792;28;20518;-77
2023/04/14 04:51:24;;;;;;;5.00;3.38;;;;;;;1.49;100.00;100716.56;5060091;28;20122;-77
2023/04/14 04:53:51;;;;;;;13.90;2.50;;;;;;;1.48;100.00;100717.47;5051362;28;20098;-78
2023/04/14 04:56:16;;;;;;;16.42;2.75;;;;;;;1.50;100.00;100715.63;5056243;28;20043;-80
2023/04/14 04:58:41;;;;;;;7.13;2.75;;;;;;;1.53;100.00;100721.38;5085095;28;20036;-78
2023/04/14 05:01:08;;;;;;;10.75;2.63;;;;;;;1.50;100.00;100718.19;5070824;28;20036;-79
2023/04/14 05:03:35;;;;;;;13.95;2.58;;;;;;;1.49;100.00;100712.25;5055779;28;20035;-78
2023/04/14 05:06:01;;;;;;;12.43;2.80;;;;;;;1.51;100.00;100714.72;5057936;28;20036;-76
2023/04/14 05:08:26;;;;;;;10.63;3.80;;;;;;;1.54;100.00;100724.72;5065357;28;20043;-78
2023/04/14 05:10:52;;;;;;;11.27;3.50;;;;;;;1.60;100.00;100720.97;5064200;28;20040;-78
2023/04/14 05:13:17;;;;;;;8.75;3.08;;;;;;;1.65;100.00;100726.59;5052019;28;20040;-77
2023/04/14 05:15:43;;;;;;;13.25;3.20;;;;;;;1.69;100.00;100728.03;5065395;28;20043;-78
2023/04/14 05:18:09;;;;;;;11.18;2.60;;;;;;;1.73;100.00;100732.03;5068505;28;20031;-79
2023/04/14 05:20:35;;;;;;;12.90;2.97;;;;;;;1.79;100.00;100735.91;5068631;28;20028;-75
2023/04/14 05:23:01;;;;;;;17.30;3.10;;;;;;;1.82;100.00;100733.16;5065993;28;20387;-78
2023/04/14 05:25:26;;;;;;;12.07;2.42;;;;;;;1.82;100.00;100728.88;5051313;28;20038;-78
2023/04/14 05:27:52;;;;;;;11.80;3.10;;;;;;;1.87;100.00;100734.50;5052132;28;20037;-78
2023/04/14 05:30:17;;;;;;;9.13;3.03;;;;;;;1.91;100.00;100724.88;5072771;28;20024;-79
2023/04/14 05:32:43;;;;;;;11.38;2.88;;;;;;;1.94;100.00;100728.06;5051346;28;20032;-78
2023/04/14 05:35:08;;;;;;;7.22;2.40;;;;;;;1.97;100.00;100729.59;5064627;28;20504;-77
2023/04/14 05:37:34;;;;;;;15.82;3.78;;;;;;;2.01;100.00;100725.91;5066721;28;20447;-78
2023/04/14 05:40:00;;;;;;;5.95;3.40;;;;;;;2.05;100.00;100734.19;5048675;28;20043;-78
2023/04/14 05:42:25;;;;;;;14.98;3.45;;;;;;;2.11;100.00;100731.22;5056022;28;20115;-79
2023/04/14 05:44:51;;;;;;;12.95;3.58;;;;;;;2.23;100.00;100735.53;5050778;28;20315;-79
2023/04/14 05:47:16;;;;;;;10.63;2.75;;;;;;;2.24;100.00;100732.06;5070481;28;20044;-77
2023/04/14 05:49:42;;;;;;;13.35;2.90;;;;;;;2.30;100.00;100739.31;5054841;28;20032;-79
2023/04/14 05:52:07;;;;;;;9.45;2.88;;;;;;;2.34;100.00;100740.72;5084324;28;20044;-78
2023/04/14 05:54:33;;;;;;;12.75;3.75;;;;;;;2.44;100.00;100730.69;5073704;28;20028;-76
2023/04/14 05:56:58;;;;;;;10.77;3.40;;;;;;;2.52;100.00;100732.72;5051921;28;20096;-76
2023/04/14 05:59:24;;;;;;;14.23;3.17;;;;;;;2.71;100.00;100735.66;5066522;28;20027;-80
2023/04/14 06:01:49;;;;;;;12.13;3.17;;;;;;;3.00;100.00;100742.22;5085850;28;20032;-78
2023/04/14 06:04:15;;;;;;;8.23;2.95;;;;;;;3.14;100.00;100742.06;5055528;28;20047;-79
2023/04/14 06:06:41;;;;;;;17.02;3.22;;;;;;;3.20;100.00;100743.38;5070042;28;20418;-79
2023/04/14 06:09:06;;;;;;;13.20;4.10;;;;;;;3.33;100.00;100738.19;5070253;28;20027;-76
2023/04/14 06:11:31;;;;;;;13.63;3.38;;;;;;;3.28;100.00;100739.34;5067321;28;20219;-79
2023/04/14 06:13:57;;;;;;;13.35;3.38;;;;;;;3.26;100.00;100733.50;5051839;28;20094;-77
2023/04/14 06:16:23;;;;;;;12.65;3.15;;;;;;;3.27;100.00;100735.13;5054558;28;20190;-78
2023/04/14 06:18:48;;;;;;;10.95;3.38;;;;;;;3.38;100.00;100738.69;5052470;28;20039;-76
2023/04/14 06:21:14;;;;;;;15.48;2.75;;;;;;;3.45;100.00;100735.56;5080358;28;20040;-80
2023/04/14 06:23:39;;;;;;;13.85;3.33;;;;;;;3.57;100.00;100733.03;5070566;28;20032;-79
2023/04/14 06:26:05;;;;;;;12.02;3.42;;;;;;;3.69;100.00;100726.97;5073113;28;20048;-81
2023/04/14 06:28:31;;;;;;;17.35;3.55;;;;;;;3.81;100.00;100730.41;5056717;28;20394;-80
2023/04/14 06:30:56;;;;;;;18.27;4.03;;;;;;;3.95;100.00;100725.06;5049459;28;20118;-79
2023/04/14 06:33:22;;;;;;;19.10;4.05;;;;;;;4.04;100.00;100716.66;5085498;28;20031;-78
2023/04/14 06:35:48;;;;;;;12.55;3.65;;;;;;;4.17;99.96;100720.88;5071956;28;20040;-80
2023/04/14 06:38:13;;;;;;;22.27;4.88;;;;;;;4.20;99.87;100718.91;5062893;28;20397;-78
2023/04/14 06:40:39;;;;;;;14.95;3.63;;;;;;;4.28;99.21;100719.13;5074037;28;20036;-80
2023/04/14 06:43:06;;;;;;;10.70;2.92;;;;;;;4.57;98.05;100715.25;5058121;28;20027;-79
2023/04/14 06:45:31;;;;;;;12.32;3.40;;;;;;;4.72;96.49;100714.06;5054473;28;20035;-78
2023/04/14 06:47:57;;;;;;;13.65;3.65;;;;;;;4.96;95.22;100716.47;5056300;28;20031;-79
2023/04/14 06:50:22;;;;;;;8.38;3.42;;;;;;;5.13;94.45;100711.75;5069113;28;20036;-79
2023/04/14 06:52:47;;;;;;;14.60;2.83;;;;;;;5.38;93.20;100711.38;5056437;28;20038;-80
2023/04/14 06:55:13;;;;;;;10.70;3.15;;;;;;;5.59;90.89;100716.53;5055194;28;20024;-79
2023/04/14 06:57:39;;;;;;;23.58;3.75;;;;;;;6.00;90.98;100712.31;5070327;28;20036;-76
2023/04/14 07:00:06;;;;;;;16.48;2.83;;;;;;;6.64;86.93;100702.66;5057522;28;20058;-76
2023/04/14 07:02:31;;;;;;;10.25;3.15;;;;;;;7.52;83.86;100700.13;5056433;28;20036;-80
2023/04/14 07:04:57;;;;;;;7.78;3.08;;;;;;;8.41;79.08;100698.88;5058920;28;20374;-80
2023/04/14 07:07:23;;;;;;;8.75;2.75;;;;;;;8.99;74.43;100692.53;5051216;28;20036;-79
2023/04/14 07:09:48;;;;;;;12.30;3.20;;;;;;;9.56;71.48;100682.63;5062460;28;20573;-79
2023/04/14 07:12:15;;;;;;;20.98;2.90;;;;;;;10.01;69.26;100685.94;5057089;28;20123;-80
2023/04/14 07:14:41;;;;;;;8.27;2.60;;;;;;;10.52;67.86;100679.03;5061672;28;20055;-79
2023/04/14 07:17:07;;;;;;;7.13;2.83;;;;;;;10.86;65.79;100675.53;5068546;28;20063;-77
2023/04/14 07:19:32;;;;;;;22.63;4.00;;;;;;;11.30;66.60;100670.00;5072472;28;20078;-80
2023/04/14 07:21:58;;;;;;;7.80;2.90;;;;;;;11.58;62.47;100674.84;5073741;28;20035;-80
2023/04/14 07:24:23;;;;;;;7.38;2.55;;;;;;;11.58;62.68;100667.84;5058286;28;20516;-80
2023/04/14 07:26:49;;;;;;;10.52;2.55;;;;;;;11.91;62.92;100667.81;5052528;28;20401;-77
2023/04/14 07:29:15;;;;;;;7.25;2.85;;;;;;;12.18;62.09;100669.16;5076035;28;20090;-79
2023/04/14 07:31:41;;;;;;;8.88;2.50;;;;;;;12.44;61.14;100676.66;5069604;28;20036;-80
2023/04/14 07:34:07;;;;;;;8.93;2.78;;;;;;;12.49;61.62;100668.38;5059482;28;20444;-80
2023/04/14 07:36:33;;;;;;;13.88;2.67;;;;;;;12.87;60.54;100665.84;5057175;28;20045;-80
2023/04/14 07:38:59;;;;;;;9.50;2.60;;;;;;;12.87;60.07;100665.03;5073162;28;20035;-81
2023/04/14 07:41:25;;;;;;;14.20;3.28;;;;;;;12.85;61.01;100660.00;5053442;28;20502;-79
2023/04/14 07:43:54;;;;;;;8.35;2.45;;;;;;;12.70;58.45;100661.75;5056265;28;20027;-79
2023/04/14 07:46:20;;;;;;;10.98;2.45;;;;;;;12.80;58.24;100655.28;5061636;28;20040;-80
2023/04/14 07:48:45;;;;;;;9.63;2.28;;;;;;;13.39;56.62;100656.47;5061186;28;20031;-80
2023/04/14 07:51:11;;;;;;;7.25;2.72;;;;;;;13.58;56.63;100649.91;5055714;28;20840;-79
2023/04/14 07:53:41;;;;;;;13.48;2.33;;;;;;;13.70;56.43;100660.72;5071078;28;20478;-80
2023/04/14 07:56:06;;;;;;;9.43;2.38;;;;;;;14.31;54.63;100644.81;5054358;28;20036;-80
2023/04/14 07:58:32;;;;;;;10.55;1.80;;;;;;;14.82;51.92;100643.94;5054259;28;20054;-79
2023/04/14 08:00:57;;;;;;;9.45;2.10;;;;;;;15.07;51.23;100639.94;5070363;28;20637;-77
2023/04/14 08:03:23;;;;;;;10.05;3.17;;;;;;;15.45;50.54;100642.19;5070769;28;20028;-80
2023/04/14 08:05:48;;;;;;;9.52;2.03;;;;;;;15.19;51.16;100645.44;5073441;28;20032;-80
2023/04/14 08:08:14;;;;;;;7.80;3.03;;;;;;;14.91;51.28;100641.00;5071561;28;20035;-81
2023/04/14 08:10:41;;;;;;;10.02;3.70;;;;;;;15.30;50.35;100644.13;5072827;28;22290;-82
2023/04/14 08:13:06;;;;;;;9.50;2.42;;;;;;;14.96;49.50;100638.63;5072165;28;20231;-83
2023/04/14 08:15:32;;;;;;;8.57;2.08;;;;;;;14.49;50.90;100639.19;5072623;28;20132;-79
2023/04/14 08:17:57;;;;;;;11.32;1.95;;;;;;;14.75;52.20;100638.66;5060511;28;20032;-81
2023/04/14 08:20:23;;;;;;;11.90;2.55;;;;;;;15.08;50.35;100636.31;5071176;28;20028;-78
2023/04/14 08:22:48;;;;;;;8.13;2.22;;;;;;;14.81;50.80;100634.50;5061056;28;20443;-81
2023/04/14 08:25:13;;;;;;;8.48;2.15;;;;;;;15.28;51.04;100631.25;5058186;28;20476;-80
2023/04/14 08:27:39;;;;;;;6.32;2.38;;;;;;;15.14;51.88;100635.59;5073322;28;20040;-80
2023/04/14 08:30:05;;;;;;;9.02;2.42;;;;;;;15.52;50.13;100635.22;5063303;28;20088;-81
2023/04/14 08:32:31;;;;;;;7.20;2.00;;;;;;;15.31;51.05;100625.66;5060527;28;20047;-78
2023/04/14 08:34:56;;;;;;;6.95;2.30;;;;;;;15.69;50.77;100634.88;5056885;28;20031;-80
2023/04/14 08:37:22;;;;;;;9.43;2.85;;;;;;;15.31;50.88;100628.25;5067845;28;20475;-79
2023/04/14 08:39:48;;;;;;;9.52;2.10;;;;;;;16.04;49.03;100627.81;5076896;28;20035;-79
2023/04/14 08:42:15;;;;;;;9.60;2.55;;;;;;;15.82;48.39;100631.56;5072942;28;20029;-79
2023/04/14 08:44:41;;;;;;;8.90;2.30;;;;;;;15.64;48.57;100632.06;5070885;28;20162;-81
2023/04/14 08:47:07;;;;;;;7.55;2.10;;;;;;;15.66;48.60;100625.63;5052020;28;20123;-79
2023/04/14 08:49:44;;;;;;;7.30;1.90;;;;;;;16.07;48.98;100622.22;5077702;28;20027;-79
2023/04/14 08:52:13;;;;;;;11.18;2.17;;;;;;;15.92;48.73;100616.34;5070847;28;20067;-79
2023/04/14 08:54:39;;;;;;;9.75;2.10;;;;;;;15.74;49.77;100617.66;5067024;28;20114;-82
2023/04/14 08:57:10;;;;;;;7.28;1.80;;;;;;;15.95;48.07;100615.94;5072496;28;20570;-80
2023/04/14 08:59:36;;;;;;;12.10;1.80;;;;;;;15.72;47.76;100619.63;5075586;28;20134;-79
2023/04/14 09:02:05;;;;;;;7.07;1.80;;;;;;;16.20;48.31;100620.63;5084840;28;20047;-79
2023/04/14 09:04:32;;;;;;;8.18;1.80;;;;;;;16.09;47.81;100625.44;5071722;28;20095;-79
2023/04/14 09:06:58;;;;;;;6.85;1.98;;;;;;;16.41;46.56;100619.69;5055039;28;21472;-80
2023/04/14 09:09:23;;;;;;;11.40;2.08;;;;;;;16.18;46.25;100625.25;5056296;28;20766;-80
2023/04/14 09:11:50;;;;;;;9.23;1.52;;;;;;;16.11;46.22;100618.19;5071524;28;20384;-79
2023/04/14 09:14:17;;;;;;;6.95;1.83;;;;;;;16.36;45.42;100609.81;5070786;28;20028;-79
2023/04/14 09:16:42;;;;;;;9.38;1.85;;;;;;;16.57;45.05;100616.69;5056698;28;20044;-80
2023/04/14 09:19:08;;;;;;;8.57;1.63;;;;;;;15.76;46.14;100614.84;5056712;28;20043;-78
2023/04/14 09:21:35;;;;;;;11.63;2.03;;;;;;;15.96;48.40;100615.75;5056353;28;20115;-79
2023/04/14 09:24:01;;;;;;;8.60;2.15;;;;;;;15.46;46.95;100611.66;5069882;28;20073;-78
2023/04/14 09:26:27;;;;;;;7.57;2.13;;;;;;;16.04;47.33;100612.13;5053711;28;20043;-80
2023/04/14 09:28:53;;;;;;;9.20;1.80;;;;;;;15.98;47.54;100609.53;5058069;28;20070;-80
2023/04/14 09:31:18;;;;;;;12.02;2.13;;;;;;;16.46;46.97;100610.25;5069679;28;20045;-80
2023/04/14 09:33:47;;;;;;;8.25;1.83;;;;;;;16.09;46.63;100606.34;5053420;28;20040;-81
2023/04/14 09:36:23;;;;;;;10.93;2.30;;;;;;;16.30;49.37;100598.31;5088234;28;20038;-80
2023/04/14 09:38:50;;;;;;;9.23;2.03;;;;;;;15.91;47.47;100606.88;5079666;28;20050;-83
2023/04/14 09:41:17;;;;;;;8.27;1.80;;;;;;;15.57;48.15;100596.22;5072754;28;20063;-79
2023/04/14 09:43:43;;;;;;;7.78;1.98;;;;;;;15.49;47.01;100601.63;5074787;28;20031;-80
2023/04/14 09:46:09;;;;;;;9.40;2.78;;;;;;;15.48;48.30;100609.66;5069602;28;20060;-80
2023/04/14 09:48:36;;;;;;;10.10;2.03;;;;;;;15.48;47.97;100601.81;5053630;28;20039;-80
2023/04/14 09:51:08;;;;;;;13.15;2.65;;;;;;;15.78;47.70;100591.94;5056463;28;20050;-79
2023/04/14 09:53:41;;;;;;;12.10;2.00;;;;;;;16.01;48.01;100602.09;5074553;28;20036;-80
2023/04/14 09:56:10;;;;;;;12.75;2.00;;;;;;;15.68;48.21;100607.94;5071942;28;20032;-81
2023/04/14 09:58:40;;;;;;;8.20;1.90;;;;;;;15.89;49.88;100593.97;5056089;28;20311;-80
2023/04/14 10:01:12;;;;;;;8.45;2.42;;;;;;;16.29;47.85;100593.28;5090099;28;20406;-80
2023/04/14 10:03:38;;;;;;;12.98;2.47;;;;;;;16.42;48.03;100587.28;5076911;28;20043;-79
2023/04/14 10:06:14;;;;;;;11.65;2.28;;;;;;;16.02;47.36;100593.22;5070975;28;20036;-80
2023/04/14 10:08:43;;;;;;;7.75;2.40;;;;;;;15.87;48.37;100584.72;5079529;28;20099;-79
2023/04/14 10:11:28;;;;;;;12.73;2.40;;;;;;;15.81;47.81;100595.97;5075323;28;20096;-82
2023/04/14 10:13:56;;;;;;;10.68;1.75;;;;;;;15.27;47.80;100585.22;5074964;28;20085;-80
2023/04/14 10:16:22;;;;;;;7.10;1.80;;;;;;;15.17;48.05;100580.34;5075918;28;20040;-81
2023/04/14 10:18:49;;;;;;;14.02;2.15;;;;;;;15.50;48.43;100582.34;5057842;28;20024;-80
2023/04/14 10:21:15;;;;;;;7.97;2.45;;;;;;;15.74;47.88;100575.81;5060105;28;20040;-84
2023/04/14 10:23:41;;;;;;;15.15;2.17;;;;;;;15.62;48.90;100581.81;5085141;28;20050;-80
2023/04/14 10:26:11;;;;;;;11.57;2.47;;;;;;;15.62;46.98;100577.38;5056263;28;20141;-79
2023/04/14 10:28:40;;;;;;;13.18;2.38;;;;;;;15.82;47.38;100567.00;5068348;28;20049;-79
2023/04/14 10:31:10;;;;;;;9.45;2.30;;;;;;;15.87;47.50;100575.06;5063162;28;20040;-79
2023/04/14 10:33:39;;;;;;;9.75;2.30;;;;;;;15.79;46.72;100571.84;5088425;28;20082;-80
2023/04/14 10:36:05;;;;;;;9.65;2.22;;;;;;;15.94;47.96;100573.28;5064607;28;20113;-82
2023/04/14 10:38:44;;;;;;;9.38;2.60;;;;;;;15.73;46.33;100569.00;5067868;28;20032;-79
2023/04/14 10:41:10;;;;;;;6.38;2.42;;;;;;;16.03;49.30;100552.19;5067136;28;20063;-79
2023/04/14 10:43:36;;;;;;;9.93;2.47;;;;;;;16.17;48.98;100558.25;5052757;28;20077;-80
2023/04/14 10:46:03;;;;;;;10.80;2.22;;;;;;;15.94;47.02;100555.00;5066512;28;20098;-83
2023/04/14 10:48:34;;;;;;;7.72;1.98;;;;;;;15.78;47.57;100552.72;5069319;28;20158;-80
2023/04/14 10:51:02;;;;;;;8.27;1.88;;;;;;;15.92;47.99;100548.34;5068282;28;20124;-79
2023/04/14 10:53:37;;;;;;;7.75;2.53;;;;;;;16.29;49.66;100547.03;5050948;28;20524;-79
2023/04/14 10:56:04;;;;;;;11.00;2.80;;;;;;;16.19;47.06;100543.97;5064848;28;20040;-80
2023/04/14 10:58:33;;;;;;;10.80;1.98;;;;;;;15.79;46.38;100543.09;5066605;28;20024;-79
2023/04/14 11:00:58;;;;;;;8.00;2.33;;;;;;;15.21;48.39;100536.38;5049490;28;20065;-79
2023/04/14 11:03:30;;;;;;;9.52;2.45;;;;;;;15.34;48.65;100540.84;5067501;28;20482;-81
2023/04/14 11:05:57;;;;;;;13.40;2.45;;;;;;;15.24;47.26;100532.56;5080524;28;20489;-79
2023/04/14 11:08:26;;;;;;;10.38;2.63;;;;;;;14.99;47.66;100523.41;5056956;28;20073;-79
2023/04/14 11:11:03;;;;;;;10.77;2.00;;;;;;;15.32;48.54;100524.56;5049175;28;20040;-80
2023/04/14 11:13:29;;;;;;;9.40;2.33;;;;;;;15.56;46.47;100520.66;5059354;28;20024;-79
2023/04/14 11:16:07;;;;;;;8.77;2.20;;;;;;;14.99;46.23;100523.41;5065208;28;20040;-79
2023/04/14 11:18:36;;;;;;;10.23;2.35;;;;;;;14.84;48.34;100508.81;5048788;28;21214;-79
2023/04/14 11:21:07;;;;;;;14.05;2.90;;;;;;;14.85;49.16;100508.63;5051055;28;20044;-80
2023/04/14 11:23:34;;;;;;;12.95;2.55;;;;;;;14.82;47.41;100508.22;5072570;28;20265;-79
2023/04/14 11:26:00;;;;;;;11.00;3.63;;;;;;;14.53;47.51;100507.38;5071124;28;20036;-78
2023/04/14 11:28:30;;;;;;;13.07;2.75;;;;;;;14.49;50.00;100508.75;5068033;28;20046;-78